MST,Max TemperatureF,Mean TemperatureF,Min TemperatureF,Max Dew PointF,MeanDew PointF,Min DewpointF,Max Humidity, Mean Humidity, Min Humidity, Max Sea Level PressureIn, Mean Sea Level PressureIn, Min Sea Level PressureIn, Max VisibilityMiles, Mean VisibilityMiles, Min VisibilityMiles, Max Wind SpeedMPH, Mean Wind SpeedMPH, Max Gust SpeedMPH,PrecipitationIn, CloudCover, Events, WindDirDegrees
2013-5-1,81,65,48,24,12,-10,27,14,5,30.09,29.88,29.71,10,10,10,21,8,30,0.00,0,,302
2013-5-2,73,56,39,6,1,-5,22,11,5,30.21,30.15,30.10,10,10,10,21,9,24,0.00,0,,26
2013-5-3,78,56,34,22,6,0,35,15,5,30.12,29.96,29.82,10,10,10,16,6,23,0.00,0,,203
2013-5-4,78,61,43,24,13,7,39,16,7,29.80,29.72,29.67,10,10,10,18,7,25,0.00,0,,198
2013-5-5,71,62,53,26,20,11,32,21,11,29.98,29.77,29.70,10,10,10,21,10,28,0.00,1,,193
2013-5-6,66,58,50,38,32,16,50,39,20,29.89,29.85,29.79,10,10,9,22,11,31,T,5,,182
2013-5-7,65,53,40,42,36,28,76,58,26,29.93,29.87,29.82,10,10,10,28,9,39,0.03,4,Rain,199
2013-5-8,67,52,36,36,29,24,79,45,22,30.01,29.95,29.90,10,10,10,14,4,18,0.00,2,,205
2013-5-9,67,55,42,35,31,28,61,42,24,29.99,29.94,29.92,10,10,10,20,7,24,T,2,,209
2013-5-10,77,58,38,36,30,21,76,38,13,30.06,30.01,29.95,10,10,10,25,5,32,0.00,2,,237
2013-5-11,79,62,44,35,29,22,65,32,12,30.12,30.08,30.04,10,10,10,17,6,29,0.00,1,,134
2013-5-12,84,66,47,32,26,21,46,25,10,30.14,30.06,29.96,10,10,10,16,5,22,0.00,1,,216
2013-5-13,87,69,50,33,27,21,50,24,10,30.04,29.97,29.88,10,10,10,13,5,18,0.00,1,,202
2013-5-14,87,71,55,31,26,24,33,19,11,29.91,29.85,29.79,10,10,10,22,8,29,0.00,1,,197
2013-5-15,82,70,57,25,15,6,24,13,7,29.87,29.83,29.78,10,10,10,26,11,36,0.00,0,,214
2013-5-16,81,65,49,28,21,14,35,19,8,30.07,29.81,29.73,10,10,10,24,10,31,0.00,0,,194
2013-5-17,76,65,53,34,26,19,41,24,13,29.84,29.79,29.74,10,10,10,30,10,39,0.00,0,,197
2013-5-18,76,62,47,35,29,21,58,31,13,29.86,29.83,29.81,10,10,10,21,10,29,0.00,1,,218
2013-5-19,79,67,54,30,24,18,36,22,11,29.85,29.80,29.73,10,10,10,26,11,33,0.00,0,,246
2013-5-20,75,61,47,29,20,9,41,23,9,29.91,29.88,29.83,10,10,10,24,9,31,0.00,0,,311
2013-5-21,82,64,45,31,22,15,50,22,9,29.92,29.83,29.72,10,10,10,20,7,25,0.00,0,,213
2013-5-22,82,68,53,27,22,17,32,17,9,29.72,29.68,29.63,10,10,10,28,13,37,0.00,0,,197
2013-5-23,80,68,55,26,21,17,32,17,11,29.79,29.72,29.65,10,10,10,26,12,36,0.00,0,,180
2013-5-24,80,63,45,29,18,11,35,19,7,29.87,29.85,29.79,10,10,9,22,9,32,0.00,0,,189
2013-5-25,80,63,45,31,17,9,49,19,7,29.89,29.86,29.84,10,10,10,22,9,31,0.00,0,,184
2013-5-26,79,62,45,26,18,12,37,18,8,29.90,29.87,29.84,10,10,10,20,8,26,0.00,0,,186
2013-5-27,79,64,49,29,21,18,39,20,10,29.86,29.80,29.72,10,10,10,17,7,33,0.00,0,,202
2013-5-28,79,63,47,34,29,24,39,26,16,29.73,29.65,29.60,10,10,10,25,12,35,0.00,0,,212
2013-5-29,82,66,50,38,29,24,54,26,13,29.69,29.65,29.61,10,10,10,24,10,32,0.00,0,,252
2013-5-30,84,71,57,43,37,32,51,30,16,29.78,29.74,29.68,10,10,10,22,9,25,0.00,0,,220
2013-5-31,90,73,55,45,39,30,66,32,14,29.85,29.80,29.75,10,10,10,17,7,23,0.00,0,,222